sensor_id;sensor_type;location;lat;lon;timestamp;P1;durP1;ratioP1;P2;durP2;ratioP2
46757;SDS011;32509;47.750;-3.396;2023-05-07T00:01:58;6.55;;;3.25;;
46757;SDS011;32509;47.750;-3.396;2023-05-07T00:04:24;5.35;;;3.28;;
46757;SDS011;32509;47.750;-3.396;2023-05-07T00:06:50;5.82;;;3.35;;
46757;SDS011;32509;47.750;-3.396;2023-05-07T00:09:16;3.63;;;3.03;;
46757;SDS011;32509;47.750;-3.396;2023-05-07T00:11:44;5.40;;;2.53;;
46757;SDS011;32509;47.750;-3.396;2023-05-07T00:14:11;4.10;;;2.85;;
46757;SDS011;32509;47.750;-3.396;2023-05-07T00:16:37;6.95;;;2.78;;
46757;SDS011;32509;47.750;-3.396;2023-05-07T00:19:03;2.88;;;2.58;;
46757;SDS011;32509;47.750;-3.396;2023-05-07T00:21:29;4.90;;;3.10;;
46757;SDS011;32509;47.750;-3.396;2023-05-07T00:23:55;5.35;;;2.92;;
46757;SDS011;32509;47.750;-3.396;2023-05-07T00:26:21;5.82;;;2.65;;
46757;SDS011;32509;47.750;-3.396;2023-05-07T00:28:47;5.57;;;3.05;;
46757;SDS011;32509;47.750;-3.396;2023-05-07T00:31:13;4.75;;;2.20;;
46757;SDS011;32509;47.750;-3.396;2023-05-07T00:33:38;3.30;;;2.72;;
46757;SDS011;32509;47.750;-3.396;2023-05-07T00:36:04;4.55;;;2.38;;
46757;SDS011;32509;47.750;-3.396;2023-05-07T00:38:30;5.30;;;2.70;;
46757;SDS011;32509;47.750;-3.396;2023-05-07T00:40:56;4.47;;;2.63;;
46757;SDS011;32509;47.750;-3.396;2023-05-07T00:43:22;5.63;;;2.97;;
46757;SDS011;32509;47.750;-3.396;2023-05-07T00:45:48;8.45;;;3.63;;
46757;SDS011;32509;47.750;-3.396;2023-05-07T00:48:13;4.90;;;3.28;;
46757;SDS011;32509;47.750;-3.396;2023-05-07T00:50:40;3.92;;;2.83;;
46757;SDS011;32509;47.750;-3.396;2023-05-07T00:53:06;4.68;;;3.13;;
46757;SDS011;32509;47.750;-3.396;2023-05-07T00:55:32;5.53;;;2.83;;
46757;SDS011;32509;47.750;-3.396;2023-05-07T00:57:58;4.20;;;2.63;;
46757;SDS011;32509;47.750;-3.396;2023-05-07T01:00:24;5.88;;;2.97;;
46757;SDS011;32509;47.750;-3.396;2023-05-07T01:02:50;5.43;;;3.70;;
46757;SDS011;32509;47.750;-3.396;2023-05-07T01:05:17;4.45;;;2.53;;
46757;SDS011;32509;47.750;-3.396;2023-05-07T01:07:44;8.20;;;3.10;;
46757;SDS011;32509;47.750;-3.396;2023-05-07T01:10:10;7.38;;;3.03;;
46757;SDS011;32509;47.750;-3.396;2023-05-07T01:12:37;5.50;;;3.20;;
46757;SDS011;32509;47.750;-3.396;2023-05-07T01:15:05;7.40;;;3.80;;
46757;SDS011;32509;47.750;-3.396;2023-05-07T01:17:36;6.65;;;3.50;;
46757;SDS011;32509;47.750;-3.396;2023-05-07T01:20:06;5.68;;;3.60;;
46757;SDS011;32509;47.750;-3.396;2023-05-07T01:22:36;6.45;;;3.63;;
46757;SDS011;32509;47.750;-3.396;2023-05-07T01:25:04;4.43;;;2.92;;
46757;SDS011;32509;47.750;-3.396;2023-05-07T01:27:31;3.25;;;2.85;;
46757;SDS011;32509;47.750;-3.396;2023-05-07T01:29:58;5.20;;;2.85;;
46757;SDS011;32509;47.750;-3.396;2023-05-07T01:32:28;6.55;;;2.95;;
46757;SDS011;32509;47.750;-3.396;2023-05-07T01:35:36;4.97;;;3.20;;
46757;SDS011;32509;47.750;-3.396;2023-05-07T01:38:04;5.35;;;2.88;;
46757;SDS011;32509;47.750;-3.396;2023-05-07T01:40:31;2.40;;;1.95;;
46757;SDS011;32509;47.750;-3.396;2023-05-07T01:42:57;4.57;;;2.05;;
46757;SDS011;32509;47.750;-3.396;2023-05-07T01:45:23;2.72;;;1.95;;
46757;SDS011;32509;47.750;-3.396;2023-05-07T01:47:50;5.43;;;1.88;;
46757;SDS011;32509;47.750;-3.396;2023-05-07T01:50:18;2.22;;;1.52;;
46757;SDS011;32509;47.750;-3.396;2023-05-07T01:52:45;2.75;;;1.65;;
46757;SDS011;32509;47.750;-3.396;2023-05-07T01:55:12;3.35;;;1.40;;
46757;SDS011;32509;47.750;-3.396;2023-05-07T01:57:38;1.35;;;0.90;;
46757;SDS011;32509;47.750;-3.396;2023-05-07T02:00:04;1.35;;;1.23;;
46757;SDS011;32509;47.750;-3.396;2023-05-07T02:02:30;1.63;;;1.05;;
46757;SDS011;32509;47.750;-3.396;2023-05-07T02:04:56;2.50;;;0.95;;
46757;SDS011;32509;47.750;-3.396;2023-05-07T02:07:22;2.63;;;0.90;;
46757;SDS011;32509;47.750;-3.396;2023-05-07T02:09:47;2.78;;;1.30;;
46757;SDS011;32509;47.750;-3.396;2023-05-07T02:12:13;2.97;;;1.45;;
46757;SDS011;32509;47.750;-3.396;2023-05-07T02:14:39;1.67;;;1.23;;
46757;SDS011;32509;47.750;-3.396;2023-05-07T02:17:05;1.70;;;1.02;;
46757;SDS011;32509;47.750;-3.396;2023-05-07T02:19:30;2.67;;;1.10;;
46757;SDS011;32509;47.750;-3.396;2023-05-07T02:21:56;4.05;;;1.30;;
46757;SDS011;32509;47.750;-3.396;2023-05-07T02:24:22;1.58;;;1.35;;
46757;SDS011;32509;47.750;-3.396;2023-05-07T02:26:48;2.20;;;1.38;;
46757;SDS011;32509;47.750;-3.396;2023-05-07T02:29:13;4.85;;;1.50;;
46757;SDS011;32509;47.750;-3.396;2023-05-07T02:31:40;1.52;;;1.42;;
46757;SDS011;32509;47.750;-3.396;2023-05-07T02:34:05;1.75;;;0.95;;
46757;SDS011;32509;47.750;-3.396;2023-05-07T02:36:31;1.63;;;1.52;;
46757;SDS011;32509;47.750;-3.396;2023-05-07T02:38:57;4.22;;;1.50;;
46757;SDS011;32509;47.750;-3.396;2023-05-07T02:41:22;2.75;;;1.15;;
46757;SDS011;32509;47.750;-3.396;2023-05-07T02:43:48;1.00;;;0.90;;
46757;SDS011;32509;47.750;-3.396;2023-05-07T02:46:14;2.30;;;0.98;;
46757;SDS011;32509;47.750;-3.396;2023-05-07T02:48:40;0.80;;;0.80;;
46757;SDS011;32509;47.750;-3.396;2023-05-07T02:51:06;2.95;;;1.40;;
46757;SDS011;32509;47.750;-3.396;2023-05-07T02:53:32;4.25;;;1.50;;
46757;SDS011;32509;47.750;-3.396;2023-05-07T02:55:59;2.88;;;1.10;;
46757;SDS011;32509;47.750;-3.396;2023-05-07T02:58:25;1.38;;;1.02;;
46757;SDS011;32509;47.750;-3.396;2023-05-07T03:00:51;1.88;;;1.40;;
46757;SDS011;32509;47.750;-3.396;2023-05-07T03:03:17;2.25;;;1.20;;
46757;SDS011;32509;47.750;-3.396;2023-05-07T03:05:43;2.60;;;1.30;;
46757;SDS011;32509;47.750;-3.396;2023-05-07T03:08:09;1.45;;;1.17;;
46757;SDS011;32509;47.750;-3.396;2023-05-07T03:10:36;3.40;;;1.50;;
46757;SDS011;32509;47.750;-3.396;2023-05-07T03:13:02;2.17;;;1.10;;
46757;SDS011;32509;47.750;-3.396;2023-05-07T03:15:28;3.33;;;0.85;;
46757;SDS011;32509;47.750;-3.396;2023-05-07T03:17:54;4.63;;;1.35;;
46757;SDS011;32509;47.750;-3.396;2023-05-07T03:20:20;2.45;;;1.50;;
46757;SDS011;32509;47.750;-3.396;2023-05-07T03:22:46;1.40;;;1.10;;
46757;SDS011;32509;47.750;-3.396;2023-05-07T03:25:12;1.45;;;1.20;;
46757;SDS011;32509;47.750;-3.396;2023-05-07T03:27:39;1.20;;;1.10;;
46757;SDS011;32509;47.750;-3.396;2023-05-07T03:30:05;1.08;;;0.80;;
46757;SDS011;32509;47.750;-3.396;2023-05-07T03:32:31;1.90;;;1.20;;
46757;SDS011;32509;47.750;-3.396;2023-05-07T03:34:57;2.15;;;1.25;;
46757;SDS011;32509;47.750;-3.396;2023-05-07T03:37:23;1.83;;;1.40;;
46757;SDS011;32509;47.750;-3.396;2023-05-07T03:39:49;2.70;;;1.20;;
46757;SDS011;32509;47.750;-3.396;2023-05-07T03:42:15;1.67;;;1.55;;
46757;SDS011;32509;47.750;-3.396;2023-05-07T03:44:40;2.08;;;1.42;;
46757;SDS011;32509;47.750;-3.396;2023-05-07T03:47:06;1.40;;;1.30;;
46757;SDS011;32509;47.750;-3.396;2023-05-07T03:49:32;3.75;;;1.90;;
46757;SDS011;32509;47.750;-3.396;2023-05-07T03:51:58;2.35;;;1.85;;
46757;SDS011;32509;47.750;-3.396;2023-05-07T03:54:24;3.38;;;1.60;;
46757;SDS011;32509;47.750;-3.396;2023-05-07T03:56:50;1.77;;;1.65;;
46757;SDS011;32509;47.750;-3.396;2023-05-07T03:59:15;2.10;;;1.83;;
46757;SDS011;32509;47.750;-3.396;2023-05-07T04:01:41;3.33;;;2.00;;
46757;SDS011;32509;47.750;-3.396;2023-05-07T04:04:07;2.85;;;1.58;;
46757;SDS011;32509;47.750;-3.396;2023-05-07T04:06:32;4.53;;;1.55;;
46757;SDS011;32509;47.750;-3.396;2023-05-07T04:08:58;2.17;;;1.67;;
46757;SDS011;32509;47.750;-3.396;2023-05-07T04:11:24;4.53;;;1.45;;
46757;SDS011;32509;47.750;-3.396;2023-05-07T04:13:50;1.52;;;1.42;;
46757;SDS011;32509;47.750;-3.396;2023-05-07T04:16:16;3.78;;;1.48;;
46757;SDS011;32509;47.750;-3.396;2023-05-07T04:18:41;2.50;;;1.85;;
46757;SDS011;32509;47.750;-3.396;2023-05-07T04:21:17;5.68;;;1.70;;
46757;SDS011;32509;47.750;-3.396;2023-05-07T04:23:43;1.52;;;1.40;;
46757;SDS011;32509;47.750;-3.396;2023-05-07T04:26:11;4.15;;;1.63;;
46757;SDS011;32509;47.750;-3.396;2023-05-07T04:28:38;1.50;;;1.40;;
46757;SDS011;32509;47.750;-3.396;2023-05-07T04:31:04;2.45;;;2.17;;
46757;SDS011;32509;47.750;-3.396;2023-05-07T04:33:30;1.42;;;1.10;;
46757;SDS011;32509;47.750;-3.396;2023-05-07T04:35:56;1.25;;;1.15;;
46757;SDS011;32509;47.750;-3.396;2023-05-07T04:38:22;2.53;;;1.38;;
46757;SDS011;32509;47.750;-3.396;2023-05-07T04:40:51;2.13;;;1.15;;
46757;SDS011;32509;47.750;-3.396;2023-05-07T04:43:16;3.53;;;1.40;;
46757;SDS011;32509;47.750;-3.396;2023-05-07T04:45:42;1.63;;;1.38;;
46757;SDS011;32509;47.750;-3.396;2023-05-07T04:48:09;4.15;;;1.30;;
46757;SDS011;32509;47.750;-3.396;2023-05-07T04:50:34;3.13;;;1.40;;
46757;SDS011;32509;47.750;-3.396;2023-05-07T04:53:00;4.22;;;1.77;;
46757;SDS011;32509;47.750;-3.396;2023-05-07T04:55:26;2.28;;;1.85;;
46757;SDS011;32509;47.750;-3.396;2023-05-07T04:57:52;3.72;;;1.65;;
46757;SDS011;32509;47.750;-3.396;2023-05-07T05:00:18;2.60;;;1.90;;
46757;SDS011;32509;47.750;-3.396;2023-05-07T05:02:45;4.13;;;2.53;;
46757;SDS011;32509;47.750;-3.396;2023-05-07T05:05:10;1.92;;;1.70;;
46757;SDS011;32509;47.750;-3.396;2023-05-07T05:07:36;3.38;;;1.63;;
46757;SDS011;32509;47.750;-3.396;2023-05-07T05:10:04;1.33;;;1.23;;
46757;SDS011;32509;47.750;-3.396;2023-05-07T05:12:31;3.78;;;2.00;;
46757;SDS011;32509;47.750;-3.396;2023-05-07T05:14:57;1.65;;;1.55;;
46757;SDS011;32509;47.750;-3.396;2023-05-07T05:17:23;1.45;;;1.35;;
46757;SDS011;32509;47.750;-3.396;2023-05-07T05:19:49;1.65;;;1.10;;
46757;SDS011;32509;47.750;-3.396;2023-05-07T05:22:14;2.72;;;1.67;;
46757;SDS011;32509;47.750;-3.396;2023-05-07T05:24:41;1.95;;;1.30;;
46757;SDS011;32509;47.750;-3.396;2023-05-07T05:27:07;2.25;;;1.20;;
46757;SDS011;32509;47.750;-3.396;2023-05-07T05:29:33;1.67;;;1.20;;
46757;SDS011;32509;47.750;-3.396;2023-05-07T05:31:59;1.40;;;1.27;;
46757;SDS011;32509;47.750;-3.396;2023-05-07T05:34:24;1.92;;;1.15;;
46757;SDS011;32509;47.750;-3.396;2023-05-07T05:36:50;2.95;;;1.73;;
46757;SDS011;32509;47.750;-3.396;2023-05-07T05:39:16;2.25;;;1.33;;
46757;SDS011;32509;47.750;-3.396;2023-05-07T05:41:42;2.42;;;1.40;;
46757;SDS011;32509;47.750;-3.396;2023-05-07T05:44:08;2.75;;;1.50;;
46757;SDS011;32509;47.750;-3.396;2023-05-07T05:46:34;4.88;;;1.55;;
46757;SDS011;32509;47.750;-3.396;2023-05-07T05:49:00;1.42;;;1.30;;
46757;SDS011;32509;47.750;-3.396;2023-05-07T05:51:26;2.08;;;0.95;;
46757;SDS011;32509;47.750;-3.396;2023-05-07T05:53:51;4.22;;;2.22;;
46757;SDS011;32509;47.750;-3.396;2023-05-07T05:56:17;1.63;;;1.50;;
46757;SDS011;32509;47.750;-3.396;2023-05-07T05:58:43;5.70;;;1.92;;
46757;SDS011;32509;47.750;-3.396;2023-05-07T06:01:09;3.15;;;1.40;;
46757;SDS011;32509;47.750;-3.396;2023-05-07T06:03:36;2.28;;;2.08;;
46757;SDS011;32509;47.750;-3.396;2023-05-07T06:06:02;1.60;;;1.50;;
46757;SDS011;32509;47.750;-3.396;2023-05-07T06:08:29;2.10;;;1.60;;
46757;SDS011;32509;47.750;-3.396;2023-05-07T06:10:55;5.07;;;1.60;;
46757;SDS011;32509;47.750;-3.396;2023-05-07T06:13:21;1.80;;;1.70;;
46757;SDS011;32509;47.750;-3.396;2023-05-07T06:15:47;2.67;;;1.38;;
46757;SDS011;32509;47.750;-3.396;2023-05-07T06:18:14;1.48;;;1.38;;
46757;SDS011;32509;47.750;-3.396;2023-05-07T06:20:40;1.55;;;1.38;;
46757;SDS011;32509;47.750;-3.396;2023-05-07T06:23:06;1.55;;;1.45;;
46757;SDS011;32509;47.750;-3.396;2023-05-07T06:25:32;1.83;;;1.73;;
46757;SDS011;32509;47.750;-3.396;2023-05-07T06:27:57;1.83;;;1.73;;
46757;SDS011;32509;47.750;-3.396;2023-05-07T06:30:23;3.35;;;1.85;;
46757;SDS011;32509;47.750;-3.396;2023-05-07T06:32:49;1.77;;;1.42;;
46757;SDS011;32509;47.750;-3.396;2023-05-07T06:35:14;1.65;;;1.55;;
46757;SDS011;32509;47.750;-3.396;2023-05-07T06:37:41;3.03;;;1.58;;
46757;SDS011;32509;47.750;-3.396;2023-05-07T06:40:07;1.52;;;1.42;;
46757;SDS011;32509;47.750;-3.396;2023-05-07T06:42:34;4.40;;;1.73;;
46757;SDS011;32509;47.750;-3.396;2023-05-07T06:45:00;1.80;;;1.70;;
46757;SDS011;32509;47.750;-3.396;2023-05-07T06:47:27;2.60;;;1.98;;
46757;SDS011;32509;47.750;-3.396;2023-05-07T06:49:53;1.98;;;1.52;;
46757;SDS011;32509;47.750;-3.396;2023-05-07T06:52:19;1.80;;;1.70;;
46757;SDS011;32509;47.750;-3.396;2023-05-07T06:54:45;2.45;;;1.60;;
46757;SDS011;32509;47.750;-3.396;2023-05-07T06:57:10;1.67;;;1.58;;
46757;SDS011;32509;47.750;-3.396;2023-05-07T06:59:36;2.00;;;1.80;;
46757;SDS011;32509;47.750;-3.396;2023-05-07T07:02:02;2.28;;;1.70;;
46757;SDS011;32509;47.750;-3.396;2023-05-07T07:04:28;3.17;;;1.70;;
46757;SDS011;32509;47.750;-3.396;2023-05-07T07:06:53;1.50;;;1.40;;
46757;SDS011;32509;47.750;-3.396;2023-05-07T07:09:19;2.67;;;1.42;;
46757;SDS011;32509;47.750;-3.396;2023-05-07T07:11:45;1.52;;;1.42;;
46757;SDS011;32509;47.750;-3.396;2023-05-07T07:14:11;2.00;;;1.88;;
46757;SDS011;32509;47.750;-3.396;2023-05-07T07:16:37;2.30;;;1.42;;
46757;SDS011;32509;47.750;-3.396;2023-05-07T07:19:02;1.55;;;1.45;;
46757;SDS011;32509;47.750;-3.396;2023-05-07T07:21:28;1.60;;;1.50;;
46757;SDS011;32509;47.750;-3.396;2023-05-07T07:23:55;1.30;;;1.27;;
46757;SDS011;32509;47.750;-3.396;2023-05-07T07:26:20;1.40;;;1.30;;
46757;SDS011;32509;47.750;-3.396;2023-05-07T07:28:46;2.53;;;1.75;;
46757;SDS011;32509;47.750;-3.396;2023-05-07T07:31:12;0.90;;;0.90;;
46757;SDS011;32509;47.750;-3.396;2023-05-07T07:33:38;5.15;;;1.58;;
46757;SDS011;32509;47.750;-3.396;2023-05-07T07:36:05;1.35;;;1.20;;
46757;SDS011;32509;47.750;-3.396;2023-05-07T07:38:31;1.40;;;1.30;;
46757;SDS011;32509;47.750;-3.396;2023-05-07T07:40:57;1.20;;;1.10;;
46757;SDS011;32509;47.750;-3.396;2023-05-07T07:43:22;1.63;;;1.05;;
46757;SDS011;32509;47.750;-3.396;2023-05-07T07:45:48;1.50;;;1.40;;
46757;SDS011;32509;47.750;-3.396;2023-05-07T07:48:14;4.00;;;1.20;;
46757;SDS011;32509;47.750;-3.396;2023-05-07T07:50:40;1.50;;;0.80;;
46757;SDS011;32509;47.750;-3.396;2023-05-07T07:53:06;1.67;;;1.45;;
46757;SDS011;32509;47.750;-3.396;2023-05-07T07:55:31;1.30;;;1.20;;
46757;SDS011;32509;47.750;-3.396;2023-05-07T07:57:57;1.08;;;1.00;;
46757;SDS011;32509;47.750;-3.396;2023-05-07T08:00:23;1.48;;;0.90;;
46757;SDS011;32509;47.750;-3.396;2023-05-07T08:02:49;1.85;;;1.42;;
46757;SDS011;32509;47.750;-3.396;2023-05-07T08:05:15;1.00;;;0.90;;
46757;SDS011;32509;47.750;-3.396;2023-05-07T08:07:40;1.38;;;0.75;;
46757;SDS011;32509;47.750;-3.396;2023-05-07T08:10:06;1.17;;;1.08;;
46757;SDS011;32509;47.750;-3.396;2023-05-07T08:12:32;1.40;;;1.30;;
46757;SDS011;32509;47.750;-3.396;2023-05-07T08:14:58;2.45;;;1.10;;
46757;SDS011;32509;47.750;-3.396;2023-05-07T08:17:24;1.40;;;0.80;;
46757;SDS011;32509;47.750;-3.396;2023-05-07T08:19:50;2.45;;;1.00;;
46757;SDS011;32509;47.750;-3.396;2023-05-07T08:22:15;0.90;;;0.90;;
46757;SDS011;32509;47.750;-3.396;2023-05-07T08:24:43;1.20;;;1.10;;
46757;SDS011;32509;47.750;-3.396;2023-05-07T08:27:09;1.00;;;0.93;;
46757;SDS011;32509;47.750;-3.396;2023-05-07T08:29:35;1.30;;;1.20;;
46757;SDS011;32509;47.750;-3.396;2023-05-07T08:32:01;1.25;;;1.10;;
46757;SDS011;32509;47.750;-3.396;2023-05-07T08:34:27;1.55;;;1.40;;
46757;SDS011;32509;47.750;-3.396;2023-05-07T08:36:52;1.67;;;1.15;;
46757;SDS011;32509;47.750;-3.396;2023-05-07T08:39:18;2.22;;;1.02;;
46757;SDS011;32509;47.750;-3.396;2023-05-07T08:41:44;0.95;;;0.95;;
46757;SDS011;32509;47.750;-3.396;2023-05-07T08:44:12;0.88;;;0.88;;
46757;SDS011;32509;47.750;-3.396;2023-05-07T08:46:41;1.08;;;1.05;;
46757;SDS011;32509;47.750;-3.396;2023-05-07T08:49:08;1.40;;;1.30;;
46757;SDS011;32509;47.750;-3.396;2023-05-07T08:51:34;3.00;;;1.00;;
46757;SDS011;32509;47.750;-3.396;2023-05-07T08:54:01;1.65;;;1.25;;
46757;SDS011;32509;47.750;-3.396;2023-05-07T08:56:27;0.65;;;0.65;;
46757;SDS011;32509;47.750;-3.396;2023-05-07T08:58:52;0.88;;;0.88;;
46757;SDS011;32509;47.750;-3.396;2023-05-07T09:01:23;0.90;;;0.90;;
46757;SDS011;32509;47.750;-3.396;2023-05-07T09:03:50;1.25;;;1.25;;
46757;SDS011;32509;47.750;-3.396;2023-05-07T09:06:16;0.93;;;0.80;;
46757;SDS011;32509;47.750;-3.396;2023-05-07T09:08:48;1.10;;;0.60;;
46757;SDS011;32509;47.750;-3.396;2023-05-07T09:11:15;0.68;;;0.68;;
46757;SDS011;32509;47.750;-3.396;2023-05-07T09:13:41;2.45;;;0.80;;
46757;SDS011;32509;47.750;-3.396;2023-05-07T09:16:11;1.27;;;0.63;;
46757;SDS011;32509;47.750;-3.396;2023-05-07T09:18:41;2.00;;;1.00;;
46757;SDS011;32509;47.750;-3.396;2023-05-07T09:21:11;0.95;;;0.73;;
46757;SDS011;32509;47.750;-3.396;2023-05-07T09:23:41;2.45;;;0.98;;
46757;SDS011;32509;47.750;-3.396;2023-05-07T09:26:07;4.93;;;1.10;;
46757;SDS011;32509;47.750;-3.396;2023-05-07T09:28:40;0.68;;;0.68;;
46757;SDS011;32509;47.750;-3.396;2023-05-07T09:31:07;1.00;;;1.00;;
46757;SDS011;32509;47.750;-3.396;2023-05-07T09:33:34;1.83;;;0.85;;
46757;SDS011;32509;47.750;-3.396;2023-05-07T09:36:07;3.17;;;0.80;;
46757;SDS011;32509;47.750;-3.396;2023-05-07T09:38:34;4.38;;;1.63;;
46757;SDS011;32509;47.750;-3.396;2023-05-07T09:41:01;2.40;;;1.10;;
46757;SDS011;32509;47.750;-3.396;2023-05-07T09:43:31;1.70;;;1.00;;
46757;SDS011;32509;47.750;-3.396;2023-05-07T09:46:00;1.23;;;1.10;;
46757;SDS011;32509;47.750;-3.396;2023-05-07T09:48:30;1.15;;;1.05;;
46757;SDS011;32509;47.750;-3.396;2023-05-07T09:51:01;0.80;;;0.80;;
46757;SDS011;32509;47.750;-3.396;2023-05-07T09:53:30;1.17;;;0.90;;
46757;SDS011;32509;47.750;-3.396;2023-05-07T09:55:56;1.13;;;0.80;;
46757;SDS011;32509;47.750;-3.396;2023-05-07T09:58:23;3.30;;;0.85;;
46757;SDS011;32509;47.750;-3.396;2023-05-07T10:00:51;0.82;;;0.57;;
46757;SDS011;32509;47.750;-3.396;2023-05-07T10:03:17;0.88;;;0.70;;
46757;SDS011;32509;47.750;-3.396;2023-05-07T10:05:46;0.90;;;0.90;;
46757;SDS011;32509;47.750;-3.396;2023-05-07T10:08:12;3.47;;;1.00;;
46757;SDS011;32509;47.750;-3.396;2023-05-07T10:10:41;1.48;;;1.38;;
46757;SDS011;32509;47.750;-3.396;2023-05-07T10:13:08;5.55;;;1.10;;
46757;SDS011;32509;47.750;-3.396;2023-05-07T10:15:36;1.05;;;1.05;;
46757;SDS011;32509;47.750;-3.396;2023-05-07T10:18:03;3.22;;;0.73;;
46757;SDS011;32509;47.750;-3.396;2023-05-07T10:20:31;3.45;;;1.00;;
46757;SDS011;32509;47.750;-3.396;2023-05-07T10:22:58;3.33;;;0.82;;
46757;SDS011;32509;47.750;-3.396;2023-05-07T10:25:28;1.95;;;0.80;;
46757;SDS011;32509;47.750;-3.396;2023-05-07T10:27:56;1.30;;;0.90;;
46757;SDS011;32509;47.750;-3.396;2023-05-07T10:33:19;1.02;;;1.00;;
46757;SDS011;32509;47.750;-3.396;2023-05-07T10:35:49;3.28;;;1.30;;
46757;SDS011;32509;47.750;-3.396;2023-05-07T10:38:15;1.70;;;0.90;;
46757;SDS011;32509;47.750;-3.396;2023-05-07T10:40:41;0.80;;;0.80;;
46757;SDS011;32509;47.750;-3.396;2023-05-07T10:43:09;1.38;;;0.93;;
46757;SDS011;32509;47.750;-3.396;2023-05-07T10:45:36;1.30;;;1.02;;
46757;SDS011;32509;47.750;-3.396;2023-05-07T10:48:06;1.55;;;1.10;;
46757;SDS011;32509;47.750;-3.396;2023-05-07T10:50:42;1.48;;;1.23;;
46757;SDS011;32509;47.750;-3.396;2023-05-07T10:59:47;2.58;;;1.77;;
46757;SDS011;32509;47.750;-3.396;2023-05-07T11:01:58;3.20;;;1.75;;
46757;SDS011;32509;47.750;-3.396;2023-05-07T11:04:31;4.63;;;1.77;;
46757;SDS011;32509;47.750;-3.396;2023-05-07T11:07:24;2.15;;;1.95;;
46757;SDS011;32509;47.750;-3.396;2023-05-07T11:15:09;4.35;;;1.80;;
46757;SDS011;32509;47.750;-3.396;2023-05-07T11:26:02;1.95;;;1.40;;
46757;SDS011;32509;47.750;-3.396;2023-05-07T11:28:39;2.13;;;1.58;;
46757;SDS011;32509;47.750;-3.396;2023-05-07T11:31:06;3.15;;;1.85;;
46757;SDS011;32509;47.750;-3.396;2023-05-07T11:33:33;1.98;;;1.58;;
46757;SDS011;32509;47.750;-3.396;2023-05-07T11:35:59;1.38;;;1.23;;
46757;SDS011;32509;47.750;-3.396;2023-05-07T11:38:28;4.57;;;1.48;;
46757;SDS011;32509;47.750;-3.396;2023-05-07T11:40:59;1.98;;;1.80;;
46757;SDS011;32509;47.750;-3.396;2023-05-07T11:43:30;3.25;;;1.88;;
46757;SDS011;32509;47.750;-3.396;2023-05-07T11:46:04;4.75;;;1.90;;
46757;SDS011;32509;47.750;-3.396;2023-05-07T11:48:37;1.67;;;1.58;;
46757;SDS011;32509;47.750;-3.396;2023-05-07T11:51:05;3.47;;;2.10;;
46757;SDS011;32509;47.750;-3.396;2023-05-07T11:53:38;5.95;;;1.95;;
46757;SDS011;32509;47.750;-3.396;2023-05-07T11:56:13;1.83;;;1.58;;
46757;SDS011;32509;47.750;-3.396;2023-05-07T11:58:40;2.20;;;1.73;;
46757;SDS011;32509;47.750;-3.396;2023-05-07T12:01:07;2.75;;;2.05;;
46757;SDS011;32509;47.750;-3.396;2023-05-07T12:03:35;5.90;;;1.70;;
46757;SDS011;32509;47.750;-3.396;2023-05-07T12:06:02;3.63;;;2.30;;
46757;SDS011;32509;47.750;-3.396;2023-05-07T12:08:30;2.15;;;1.95;;
46757;SDS011;32509;47.750;-3.396;2023-05-07T12:10:56;5.85;;;1.77;;
46757;SDS011;32509;47.750;-3.396;2023-05-07T12:13:23;3.63;;;2.00;;
46757;SDS011;32509;47.750;-3.396;2023-05-07T12:15:51;5.18;;;1.92;;
46757;SDS011;32509;47.750;-3.396;2023-05-07T12:18:17;6.85;;;2.75;;
46757;SDS011;32509;47.750;-3.396;2023-05-07T12:20:43;1.50;;;1.40;;
46757;SDS011;32509;47.750;-3.396;2023-05-07T12:23:10;3.22;;;1.75;;
46757;SDS011;32509;47.750;-3.396;2023-05-07T12:25:37;3.13;;;1.60;;
46757;SDS011;32509;47.750;-3.396;2023-05-07T12:28:04;3.90;;;1.70;;
46757;SDS011;32509;47.750;-3.396;2023-05-07T12:30:36;4.03;;;1.75;;
46757;SDS011;32509;47.750;-3.396;2023-05-07T12:33:03;3.63;;;2.25;;
46757;SDS011;32509;47.750;-3.396;2023-05-07T12:35:31;5.72;;;1.58;;
46757;SDS011;32509;47.750;-3.396;2023-05-07T12:38:00;2.15;;;1.67;;
46757;SDS011;32509;47.750;-3.396;2023-05-07T12:40:42;8.88;;;2.33;;
46757;SDS011;32509;47.750;-3.396;2023-05-07T12:43:18;6.75;;;2.08;;
46757;SDS011;32509;47.750;-3.396;2023-05-07T12:45:44;3.83;;;1.52;;
46757;SDS011;32509;47.750;-3.396;2023-05-07T12:48:13;3.05;;;1.75;;
46757;SDS011;32509;47.750;-3.396;2023-05-07T12:50:39;6.10;;;1.83;;
46757;SDS011;32509;47.750;-3.396;2023-05-07T12:53:05;2.15;;;1.60;;
46757;SDS011;32509;47.750;-3.396;2023-05-07T12:55:40;2.80;;;1.52;;
46757;SDS011;32509;47.750;-3.396;2023-05-07T12:58:07;3.47;;;1.45;;
46757;SDS011;32509;47.750;-3.396;2023-05-07T13:00:39;5.85;;;1.85;;
46757;SDS011;32509;47.750;-3.396;2023-05-07T13:03:04;7.13;;;1.88;;
46757;SDS011;32509;47.750;-3.396;2023-05-07T13:05:31;3.03;;;2.13;;
46757;SDS011;32509;47.750;-3.396;2023-05-07T13:07:57;1.70;;;1.60;;
46757;SDS011;32509;47.750;-3.396;2023-05-07T13:10:23;1.65;;;1.45;;
46757;SDS011;32509;47.750;-3.396;2023-05-07T13:12:50;4.10;;;1.70;;
46757;SDS011;32509;47.750;-3.396;2023-05-07T13:15:17;4.03;;;1.98;;
46757;SDS011;32509;47.750;-3.396;2023-05-07T13:17:43;2.30;;;1.50;;
46757;SDS011;32509;47.750;-3.396;2023-05-07T13:20:09;5.65;;;1.63;;
46757;SDS011;32509;47.750;-3.396;2023-05-07T13:22:36;9.88;;;1.92;;
46757;SDS011;32509;47.750;-3.396;2023-05-07T13:25:02;6.30;;;1.50;;
46757;SDS011;32509;47.750;-3.396;2023-05-07T13:27:29;3.05;;;1.63;;
46757;SDS011;32509;47.750;-3.396;2023-05-07T13:29:56;2.63;;;2.00;;
46757;SDS011;32509;47.750;-3.396;2023-05-07T13:32:22;3.45;;;1.33;;
46757;SDS011;32509;47.750;-3.396;2023-05-07T13:34:47;6.75;;;1.85;;
46757;SDS011;32509;47.750;-3.396;2023-05-07T13:37:13;4.07;;;1.73;;
46757;SDS011;32509;47.750;-3.396;2023-05-07T13:39:39;4.53;;;1.45;;
46757;SDS011;32509;47.750;-3.396;2023-05-07T13:42:06;3.85;;;1.65;;
46757;SDS011;32509;47.750;-3.396;2023-05-07T13:44:33;5.25;;;2.22;;
46757;SDS011;32509;47.750;-3.396;2023-05-07T13:46:58;4.45;;;1.65;;
46757;SDS011;32509;47.750;-3.396;2023-05-07T13:49:25;2.40;;;1.55;;
46757;SDS011;32509;47.750;-3.396;2023-05-07T13:51:51;4.18;;;1.55;;
46757;SDS011;32509;47.750;-3.396;2023-05-07T13:54:17;2.92;;;1.60;;
46757;SDS011;32509;47.750;-3.396;2023-05-07T13:56:42;4.20;;;1.38;;
46757;SDS011;32509;47.750;-3.396;2023-05-07T13:59:08;2.97;;;1.50;;
46757;SDS011;32509;47.750;-3.396;2023-05-07T14:01:34;2.60;;;1.38;;
46757;SDS011;32509;47.750;-3.396;2023-05-07T14:04:00;7.32;;;1.50;;
46757;SDS011;32509;47.750;-3.396;2023-05-07T14:06:25;3.53;;;1.30;;
46757;SDS011;32509;47.750;-3.396;2023-05-07T14:08:51;6.00;;;1.90;;
46757;SDS011;32509;47.750;-3.396;2023-05-07T14:11:17;4.22;;;2.15;;
46757;SDS011;32509;47.750;-3.396;2023-05-07T14:13:43;9.55;;;2.03;;
46757;SDS011;32509;47.750;-3.396;2023-05-07T14:16:08;7.15;;;1.92;;
46757;SDS011;32509;47.750;-3.396;2023-05-07T14:18:34;5.20;;;1.80;;
46757;SDS011;32509;47.750;-3.396;2023-05-07T14:21:02;6.45;;;1.88;;
46757;SDS011;32509;47.750;-3.396;2023-05-07T14:23:28;7.72;;;2.03;;
46757;SDS011;32509;47.750;-3.396;2023-05-07T14:25:54;6.25;;;1.77;;
46757;SDS011;32509;47.750;-3.396;2023-05-07T14:28:22;4.38;;;1.60;;
46757;SDS011;32509;47.750;-3.396;2023-05-07T14:30:48;2.63;;;1.70;;
46757;SDS011;32509;47.750;-3.396;2023-05-07T14:33:14;9.38;;;2.65;;
46757;SDS011;32509;47.750;-3.396;2023-05-07T14:35:41;5.18;;;1.77;;
46757;SDS011;32509;47.750;-3.396;2023-05-07T14:38:10;6.03;;;1.83;;
46757;SDS011;32509;47.750;-3.396;2023-05-07T14:40:35;6.47;;;1.88;;
46757;SDS011;32509;47.750;-3.396;2023-05-07T14:43:01;2.25;;;1.60;;
46757;SDS011;32509;47.750;-3.396;2023-05-07T14:45:27;3.75;;;1.60;;
46757;SDS011;32509;47.750;-3.396;2023-05-07T14:47:53;5.47;;;2.00;;
46757;SDS011;32509;47.750;-3.396;2023-05-07T14:50:18;7.57;;;1.95;;
46757;SDS011;32509;47.750;-3.396;2023-05-07T14:52:44;6.57;;;2.30;;
46757;SDS011;32509;47.750;-3.396;2023-05-07T14:55:11;4.55;;;1.75;;